Time;durP1;ratioP1;P1;durP2;ratioP2;P2;SDS_P1;SDS_P2;PMS_P1;PMS_P2;Temp;Humidity;BMP_temperature;BMP_pressure;BME280_temperature;BME280_humidity;BME280_pressure;Samples;Min_cycle;Max_cycle;Signal;HPM_P1;HPM_P2
2021/10/16 00:01:54;;;;;;;2.08;1.00;;;5.70;99.90;;;;;;4941139;28;20482;-88
2021/10/16 00:04:19;;;;;;;1.20;0.88;;;5.70;99.90;;;;;;4925755;28;20043;-89
2021/10/16 00:06:46;;;;;;;1.00;0.90;;;5.70;99.90;;;;;;4944811;28;20643;-88
2021/10/16 00:09:12;;;;;;;1.48;1.10;;;5.70;99.90;;;;;;4925417;28;20042;-90
2021/10/16 00:11:37;;;;;;;1.35;1.00;;;5.70;99.90;;;;;;4943560;28;20082;-89
2021/10/16 00:14:04;;;;;;;1.20;1.10;;;5.60;99.90;;;;;;4941162;28;20030;-89
2021/10/16 00:16:29;;;;;;;1.83;1.10;;;5.70;99.90;;;;;;4952893;28;20038;-89
2021/10/16 00:18:55;;;;;;;0.95;0.73;;;5.70;99.90;;;;;;4942128;29;20035;-90
2021/10/16 00:21:21;;;;;;;2.65;0.93;;;5.70;99.90;;;;;;4940901;28;20046;-87
2021/10/16 00:23:47;;;;;;;1.90;1.48;;;5.60;99.90;;;;;;4941802;28;20121;-87
2021/10/16 00:26:14;;;;;;;2.03;1.25;;;5.60;99.90;;;;;;4930860;28;20038;-87
2021/10/16 00:28:39;;;;;;;3.65;1.42;;;5.50;99.90;;;;;;4925047;28;20031;-88
2021/10/16 00:31:07;;;;;;;1.95;1.23;;;5.40;99.90;;;;;;4916046;29;20039;-87
2021/10/16 00:33:32;;;;;;;2.08;1.38;;;5.30;99.90;;;;;;4969573;28;20023;-87
2021/10/16 00:35:58;;;;;;;1.92;1.63;;;5.30;99.90;;;;;;4936706;28;20031;-87
2021/10/16 00:38:24;;;;;;;1.95;1.30;;;5.20;99.90;;;;;;4938465;28;20023;-87
2021/10/16 00:40:50;;;;;;;1.80;1.30;;;5.20;99.90;;;;;;4924575;28;20046;-89
2021/10/16 00:43:16;;;;;;;3.28;1.15;;;5.10;99.90;;;;;;4946425;28;20053;-89
2021/10/16 00:45:41;;;;;;;1.50;0.90;;;5.10;99.90;;;;;;4939694;28;20054;-88
2021/10/16 00:48:07;;;;;;;1.52;1.30;;;5.00;99.90;;;;;;4931868;29;20410;-88
2021/10/16 00:50:33;;;;;;;1.20;1.10;;;5.10;99.90;;;;;;4955406;28;20437;-88
2021/10/16 00:52:59;;;;;;;1.73;1.38;;;5.10;99.90;;;;;;4940451;28;20174;-89
2021/10/16 00:55:26;;;;;;;2.05;1.13;;;5.10;99.90;;;;;;4952656;28;20030;-88
2021/10/16 00:57:53;;;;;;;1.27;1.10;;;5.00;99.90;;;;;;4934442;28;20406;-88
2021/10/16 01:00:20;;;;;;;1.75;1.42;;;5.10;99.90;;;;;;4936777;28;20109;-89
2021/10/16 01:02:46;;;;;;;2.55;1.70;;;5.00;99.90;;;;;;4939855;28;21285;-89
2021/10/16 01:05:14;;;;;;;6.28;2.00;;;5.10;99.90;;;;;;4953701;28;20546;-89
2021/10/16 01:07:41;;;;;;;3.42;1.95;;;5.10;99.90;;;;;;4924171;28;20151;-89
2021/10/16 01:10:09;;;;;;;2.00;1.80;;;5.20;99.90;;;;;;4939846;28;20034;-89
2021/10/16 01:12:36;;;;;;;3.40;1.98;;;5.20;99.90;;;;;;4942433;28;20039;-89
2021/10/16 01:15:07;;;;;;;2.75;1.80;;;5.20;99.90;;;;;;4938958;28;20019;-88
2021/10/16 01:17:35;;;;;;;2.75;1.90;;;5.20;99.90;;;;;;4939815;28;20027;-89
2021/10/16 01:20:29;;;;;;;3.17;2.13;;;5.30;99.90;;;;;;4939643;28;20093;-88
2021/10/16 01:22:55;;;;;;;2.47;1.98;;;5.30;99.90;;;;;;4941062;28;20042;-89
2021/10/16 01:25:24;;;;;;;2.72;1.73;;;5.40;99.90;;;;;;4938041;28;20031;-88
2021/10/16 01:27:50;;;;;;;2.47;1.35;;;5.40;99.90;;;;;;4955244;28;20030;-88
2021/10/16 01:30:21;;;;;;;1.25;0.98;;;5.50;99.90;;;;;;4923504;28;20127;-88
2021/10/16 01:32:47;;;;;;;1.35;0.95;;;5.50;99.90;;;;;;4939193;28;20047;-89
2021/10/16 01:35:14;;;;;;;1.50;1.10;;;5.50;99.90;;;;;;4953340;28;20019;-87
2021/10/16 01:37:42;;;;;;;2.08;1.30;;;5.60;99.90;;;;;;4939304;28;20022;-89
2021/10/16 01:40:09;;;;;;;1.38;1.20;;;5.60;99.90;;;;;;4955436;28;20041;-89
2021/10/16 01:42:36;;;;;;;3.88;1.45;;;5.60;99.90;;;;;;4953406;28;20031;-87
2021/10/16 01:45:03;;;;;;;2.03;1.42;;;5.60;99.90;;;;;;4932263;28;20043;-88
2021/10/16 01:47:29;;;;;;;1.55;1.15;;;5.60;99.90;;;;;;4937238;28;20556;-88
2021/10/16 01:49:56;;;;;;;1.30;1.20;;;5.60;99.90;;;;;;4923610;28;20035;-88
2021/10/16 01:52:22;;;;;;;1.70;1.25;;;5.60;99.90;;;;;;4951430;28;20089;-87
2021/10/16 01:54:50;;;;;;;2.08;1.30;;;5.60;99.90;;;;;;4924738;28;20031;-88
2021/10/16 01:57:16;;;;;;;1.88;1.33;;;5.60;99.90;;;;;;4937221;28;20122;-88
2021/10/16 01:59:51;;;;;;;2.08;1.45;;;5.60;99.90;;;;;;4940565;28;20041;-87
2021/10/16 02:02:46;;;;;;;1.30;1.20;;;5.50;99.90;;;;;;4940907;28;20039;-88
2021/10/16 02:05:45;;;;;;;1.42;1.33;;;5.50;99.90;;;;;;4925326;28;20031;-88
2021/10/16 02:08:31;;;;;;;1.40;1.30;;;5.50;99.90;;;;;;4941190;28;20043;-89
2021/10/16 02:10:57;;;;;;;1.83;1.20;;;5.60;99.90;;;;;;4923191;29;20508;-88
2021/10/16 02:13:26;;;;;;;1.77;1.23;;;5.50;99.90;;;;;;4940092;28;20537;-89
2021/10/16 02:16:03;;;;;;;1.23;1.10;;;5.60;99.90;;;;;;4922938;28;20042;-89
2021/10/16 02:18:58;;;;;;;3.28;1.40;;;5.60;99.90;;;;;;4937362;28;20039;-88
2021/10/16 02:21:25;;;;;;;1.48;1.10;;;5.50;99.90;;;;;;4936370;29;20133;-87
2021/10/16 02:23:54;;;;;;;1.40;1.08;;;5.50;99.90;;;;;;4956163;28;20482;-88
2021/10/16 02:26:22;;;;;;;1.63;1.30;;;5.50;99.90;;;;;;4937464;28;20027;-88
2021/10/16 02:28:52;;;;;;;3.53;1.08;;;5.50;99.90;;;;;;4950478;28;20112;-89
2021/10/16 02:31:26;;;;;;;1.10;1.00;;;5.50;99.90;;;;;;4940513;28;20122;-88
2021/10/16 02:33:54;;;;;;;1.40;1.30;;;5.50;99.90;;;;;;4924538;28;20078;-87
2021/10/16 02:36:22;;;;;;;2.20;1.40;;;5.50;99.90;;;;;;4935849;28;20055;-88
2021/10/16 02:38:48;;;;;;;2.20;1.48;;;5.50;99.90;;;;;;4939082;28;20066;-88
2021/10/16 02:41:15;;;;;;;1.77;1.30;;;5.40;99.90;;;;;;4939522;28;20042;-88
2021/10/16 02:43:41;;;;;;;2.47;1.67;;;5.50;99.90;;;;;;4922006;28;20035;-88
2021/10/16 02:46:07;;;;;;;2.25;1.92;;;5.50;99.90;;;;;;4941773;28;20045;-88
2021/10/16 02:48:33;;;;;;;2.92;1.90;;;5.60;99.90;;;;;;4939502;28;20114;-87
2021/10/16 02:50:59;;;;;;;3.33;1.65;;;5.50;99.90;;;;;;4939462;29;20035;-89
2021/10/16 02:53:25;;;;;;;2.75;1.75;;;5.60;99.90;;;;;;4939809;29;20050;-88
2021/10/16 02:55:59;;;;;;;2.40;2.20;;;5.60;99.90;;;;;;4946976;28;20110;-88
2021/10/16 02:58:25;;;;;;;3.97;2.00;;;5.60;99.90;;;;;;4945089;28;20166;-88
2021/10/16 03:00:51;;;;;;;3.92;2.13;;;5.60;99.90;;;;;;4949362;28;20030;-88
2021/10/16 03:03:16;;;;;;;2.53;2.15;;;5.50;99.90;;;;;;4942236;29;20441;-88
2021/10/16 03:05:43;;;;;;;2.97;2.20;;;5.40;99.90;;;;;;4909293;28;20031;-88
2021/10/16 03:08:15;;;;;;;2.22;1.50;;;5.50;99.90;;;;;;4923920;29;20035;-88
2021/10/16 03:10:43;;;;;;;3.83;1.55;;;5.50;99.90;;;;;;4941700;28;20401;-88
2021/10/16 03:13:09;;;;;;;3.97;1.60;;;5.50;99.90;;;;;;4923828;28;20038;-88
2021/10/16 03:15:35;;;;;;;1.90;1.70;;;5.50;99.90;;;;;;4937043;28;20106;-88
2021/10/16 03:18:01;;;;;;;1.35;1.25;;;5.50;99.90;;;;;;4923485;28;20046;-89
2021/10/16 03:20:29;;;;;;;1.33;1.10;;;5.50;99.90;;;;;;4934582;28;20037;-88
2021/10/16 03:23:01;;;;;;;4.03;1.40;;;5.50;99.90;;;;;;4939430;29;20031;-88
2021/10/16 03:25:28;;;;;;;1.67;1.38;;;5.60;99.90;;;;;;4955615;28;20035;-87
2021/10/16 03:27:54;;;;;;;2.10;1.52;;;5.50;99.90;;;;;;4941928;28;20507;-89
2021/10/16 03:30:20;;;;;;;2.08;1.30;;;5.50;99.90;;;;;;4945068;28;20027;-89
2021/10/16 03:32:46;;;;;;;2.33;1.52;;;5.40;99.90;;;;;;4939189;29;20081;-88
2021/10/16 03:35:12;;;;;;;1.85;1.52;;;5.40;99.90;;;;;;4940967;28;20505;-88
2021/10/16 03:37:38;;;;;;;3.80;1.60;;;5.40;99.90;;;;;;4941952;28;20158;-88
2021/10/16 03:40:08;;;;;;;1.80;1.70;;;5.30;99.90;;;;;;4941554;28;20393;-88
2021/10/16 03:42:36;;;;;;;2.13;1.90;;;5.30;99.90;;;;;;4944313;28;20030;-87
2021/10/16 03:45:12;;;;;;;1.90;1.77;;;5.40;99.90;;;;;;4947072;28;20043;-89
2021/10/16 03:47:38;;;;;;;1.80;1.52;;;5.30;99.90;;;;;;4935378;28;20031;-88
2021/10/16 03:50:04;;;;;;;2.25;1.67;;;5.20;99.90;;;;;;4908033;28;20054;-89
2021/10/16 03:52:30;;;;;;;1.98;1.70;;;5.20;99.90;;;;;;4940453;28;20110;-89
2021/10/16 03:54:57;;;;;;;5.85;1.70;;;5.10;99.90;;;;;;4941596;29;20037;-89
2021/10/16 03:57:23;;;;;;;2.00;1.73;;;5.10;99.90;;;;;;4954317;28;20027;-89
2021/10/16 03:59:49;;;;;;;2.92;1.63;;;5.00;99.90;;;;;;4941786;28;20502;-89
2021/10/16 04:02:17;;;;;;;1.92;1.67;;;5.00;99.90;;;;;;4941426;29;20454;-89
2021/10/16 04:04:43;;;;;;;1.95;1.75;;;5.00;99.90;;;;;;4944208;28;20065;-89
2021/10/16 04:07:09;;;;;;;3.17;2.15;;;5.00;99.90;;;;;;4930247;28;20043;-88
2021/10/16 04:09:35;;;;;;;4.03;1.88;;;5.10;99.90;;;;;;4936720;29;20024;-88
2021/10/16 04:12:01;;;;;;;2.25;1.77;;;5.00;99.90;;;;;;4956967;28;20030;-88
2021/10/16 04:14:29;;;;;;;3.30;1.92;;;4.90;99.90;;;;;;4938442;28;20049;-88
2021/10/16 04:16:55;;;;;;;2.30;1.70;;;4.90;99.90;;;;;;4931338;28;20513;-87
2021/10/16 04:19:21;;;;;;;5.18;1.85;;;4.80;99.90;;;;;;4938033;28;20023;-88
2021/10/16 04:21:47;;;;;;;4.22;2.03;;;4.90;99.90;;;;;;4927531;28;20049;-88
2021/10/16 04:24:13;;;;;;;1.90;1.65;;;4.90;99.90;;;;;;4945697;28;20117;-88
2021/10/16 04:26:39;;;;;;;2.10;1.65;;;4.90;99.90;;;;;;4965370;28;20023;-88
2021/10/16 04:29:05;;;;;;;2.75;1.75;;;4.80;99.90;;;;;;4940234;28;20545;-88
2021/10/16 04:31:45;;;;;;;4.40;1.65;;;4.80;99.90;;;;;;4928148;28;20055;-88
2021/10/16 04:34:11;;;;;;;2.33;1.58;;;4.80;99.90;;;;;;4940654;28;20121;-88
2021/10/16 04:36:36;;;;;;;2.20;1.63;;;4.80;99.90;;;;;;4944774;28;20378;-88
2021/10/16 04:39:03;;;;;;;2.05;1.80;;;4.80;99.90;;;;;;4938149;28;20129;-88
2021/10/16 04:41:29;;;;;;;7.10;1.60;;;4.80;99.90;;;;;;4937291;28;20058;-88
2021/10/16 04:43:55;;;;;;;2.03;1.73;;;4.80;99.90;;;;;;4960086;28;20105;-88
2021/10/16 04:46:23;;;;;;;2.10;1.75;;;4.90;99.90;;;;;;4924121;28;20030;-88
2021/10/16 04:48:57;;;;;;;1.95;1.60;;;4.90;99.90;;;;;;4940574;28;20038;-88
2021/10/16 04:51:23;;;;;;;3.17;1.70;;;4.90;99.90;;;;;;4956253;28;20038;-88
2021/10/16 04:53:49;;;;;;;3.35;1.40;;;4.90;99.90;;;;;;4940145;28;20429;-88
2021/10/16 04:56:15;;;;;;;6.05;1.77;;;4.80;99.90;;;;;;4922375;28;20094;-87
2021/10/16 04:58:41;;;;;;;2.17;1.70;;;4.70;99.90;;;;;;4922467;28;20027;-88
2021/10/16 05:01:06;;;;;;;1.65;1.50;;;4.60;99.90;;;;;;4970708;28;20050;-89
2021/10/16 05:03:32;;;;;;;15.20;1.67;;;4.60;99.90;;;;;;4956001;28;20033;-88
2021/10/16 05:05:59;;;;;;;1.35;1.25;;;4.50;99.90;;;;;;4922985;28;20038;-89
2021/10/16 05:08:27;;;;;;;7.68;1.70;;;4.40;99.90;;;;;;4951849;28;20676;-88
2021/10/16 05:10:53;;;;;;;3.10;1.58;;;4.40;99.90;;;;;;4944932;28;20066;-88
2021/10/16 05:13:19;;;;;;;11.38;1.67;;;4.40;99.90;;;;;;4921089;29;20066;-88
2021/10/16 05:15:45;;;;;;;2.58;1.13;;;4.40;99.90;;;;;;4936036;28;20037;-88
2021/10/16 05:18:13;;;;;;;3.70;1.63;;;4.20;99.90;;;;;;4922683;29;20042;-88
2021/10/16 05:20:46;;;;;;;2.83;1.42;;;4.30;99.90;;;;;;4933350;28;20038;-88
2021/10/16 05:23:12;;;;;;;1.33;1.20;;;4.30;99.90;;;;;;4939935;28;20030;-88
2021/10/16 05:25:38;;;;;;;1.40;1.30;;;4.30;99.90;;;;;;4920717;28;20130;-88
2021/10/16 05:28:04;;;;;;;1.27;1.17;;;4.30;99.90;;;;;;4936401;28;20033;-89
2021/10/16 05:30:30;;;;;;;5.97;1.35;;;4.40;99.90;;;;;;4928233;28;20070;-88
2021/10/16 05:32:56;;;;;;;1.67;1.58;;;4.40;99.90;;;;;;4940023;28;20550;-88
2021/10/16 05:35:22;;;;;;;3.92;1.95;;;4.50;99.90;;;;;;4934087;28;20769;-88
2021/10/16 05:37:49;;;;;;;3.47;2.20;;;4.50;99.90;;;;;;4939698;28;20112;-88
2021/10/16 05:40:18;;;;;;;2.47;1.73;;;4.50;99.90;;;;;;4921277;28;20174;-88
2021/10/16 05:42:44;;;;;;;1.77;1.63;;;4.60;99.90;;;;;;4937585;28;20039;-88
2021/10/16 05:45:10;;;;;;;1.77;1.48;;;4.50;99.90;;;;;;4907591;28;20035;-89
2021/10/16 05:47:38;;;;;;;1.98;1.52;;;4.50;99.90;;;;;;4937936;28;20035;-88
2021/10/16 05:50:07;;;;;;;13.05;1.77;;;4.50;99.90;;;;;;4912731;28;20054;-88
2021/10/16 05:52:36;;;;;;;5.47;1.70;;;4.50;99.90;;;;;;4920782;28;20042;-88
2021/10/16 05:55:03;;;;;;;1.50;1.40;;;4.50;99.90;;;;;;4938693;28;20628;-88
2021/10/16 05:57:29;;;;;;;1.58;1.45;;;4.50;99.90;;;;;;4906227;28;20038;-87
2021/10/16 05:59:55;;;;;;;1.85;1.20;;;4.50;99.90;;;;;;4918991;28;20039;-88
2021/10/16 06:02:21;;;;;;;1.15;1.08;;;4.50;99.90;;;;;;4925927;28;20563;-89
2021/10/16 06:04:50;;;;;;;4.47;1.30;;;4.60;99.90;;;;;;4923347;28;20074;-87
2021/10/16 06:07:16;;;;;;;1.65;1.20;;;4.60;99.90;;;;;;4926131;28;20133;-88
2021/10/16 06:09:43;;;;;;;1.42;1.33;;;4.60;99.90;;;;;;4923201;28;20125;-88
2021/10/16 06:12:09;;;;;;;1.30;1.20;;;4.60;99.90;;;;;;4923531;28;20696;-88
2021/10/16 06:14:35;;;;;;;7.55;1.40;;;4.60;99.90;;;;;;4954556;28;20042;-88
2021/10/16 06:17:12;;;;;;;1.38;1.27;;;4.60;99.90;;;;;;4924523;28;20038;-88
2021/10/16 06:19:39;;;;;;;6.40;1.65;;;4.60;99.90;;;;;;4924551;28;20049;-88
2021/10/16 06:22:05;;;;;;;3.40;2.45;;;4.60;99.90;;;;;;4934725;29;20509;-88
2021/10/16 06:24:31;;;;;;;4.55;2.63;;;4.60;99.90;;;;;;4949533;28;20035;-88
2021/10/16 06:26:56;;;;;;;2.17;1.98;;;4.60;99.90;;;;;;4957686;28;20498;-88
2021/10/16 06:29:22;;;;;;;2.08;1.50;;;4.70;99.90;;;;;;4931973;28;20046;-88
2021/10/16 06:31:49;;;;;;;11.65;1.40;;;4.70;99.90;;;;;;4942077;28;20031;-88
2021/10/16 06:34:15;;;;;;;1.25;1.15;;;4.70;99.90;;;;;;4939551;29;20085;-89
2021/10/16 06:36:40;;;;;;;1.33;1.10;;;4.70;99.90;;;;;;4942382;28;20038;-88
2021/10/16 06:39:06;;;;;;;4.07;1.10;;;4.80;99.90;;;;;;4938118;28;20498;-88
2021/10/16 06:41:36;;;;;;;1.80;1.48;;;4.80;99.90;;;;;;4947932;28;20485;-88
2021/10/16 06:44:20;;;;;;;5.07;1.60;;;4.80;99.90;;;;;;4956665;28;20406;-88
2021/10/16 06:47:12;;;;;;;1.27;1.17;;;4.80;99.90;;;;;;4936568;28;20039;-87
2021/10/16 06:49:40;;;;;;;1.27;1.17;;;4.90;99.90;;;;;;4944449;28;20042;-88
2021/10/16 06:52:06;;;;;;;1.98;1.10;;;4.90;99.90;;;;;;4939166;29;20074;-88
2021/10/16 06:54:32;;;;;;;1.17;1.08;;;4.90;99.90;;;;;;4928071;28;20059;-88
2021/10/16 06:56:58;;;;;;;1.00;0.90;;;4.90;99.90;;;;;;4923121;29;20059;-88
2021/10/16 06:59:25;;;;;;;3.92;1.08;;;4.80;99.90;;;;;;4941086;28;20101;-88
2021/10/16 07:01:51;;;;;;;17.27;1.52;;;4.80;99.90;;;;;;4942227;28;20441;-89
2021/10/16 07:04:22;;;;;;;3.95;1.30;;;4.60;99.90;;;;;;4924059;29;20089;-88
2021/10/16 07:06:54;;;;;;;1.30;1.08;;;4.70;99.90;;;;;;4939903;28;20170;-88
2021/10/16 07:09:25;;;;;;;4.45;1.25;;;4.70;99.90;;;;;;4942945;28;20038;-89
2021/10/16 07:11:51;;;;;;;1.85;1.10;;;4.70;99.90;;;;;;4933827;29;20031;-88
